Rejestracja

Wszystkie dane podawane są w czasie UTC za wyjątkiem miejsc gdzie jest jednoznacznie podane, że jest inaczej. Dane podawane w serwisie mają charakter informacyjny!!!
Informacje w sprawie dostępu do serwisu pod numerem tel. +48 261-828-559 lub +48 261-828-138
Informacja dla żołnierzy i pracowników wojska: Prosimy o niezwłoczną zmianę adresu e-mail w profilu użytkownika na pocztę w domenie @ron.mil.pl

Aktualna Pogoda
 
Pogoda w Polsce
11°C Szczecin 10°C Suwałki 12°C Warszawa 13°C Poznan
13°C Opole 13°C Kraków 12°C Rzeszów
Więcej miast w Polsce

Pogoda w Europie
9°C Berlin 14°C Paryz 13°C Bruksela 11°C Oslo
8°C Praga 11°C Zagrzeb
Więcej miast w Europie

Metary wojskowe test
METAR EPCE 300400Z 07002KT 0100 R07/0550N FG VV002 12/12 Q1016 RMK 120 100 ///=
METAR EPDA 300400Z 00000KT 0250 FG VV002 08/08 Q1016 RMK 080 099 ///=
METAR EPDE 300400Z 32004KT 9999 -RA SCT007 BKN027 OVC070 11/11 Q1010 RMK 113 096 8/4=
METAR EPIR 300400Z 34008KT 9999 BNK075 12/10 Q1014 RMK 121 089 6/6=
METAR EPKS 300400Z 34005KT 9999 BKN030 BKN070 13/13 Q1014 RMK 130 100 7/5=
METAR EPLK 300400Z 01004KT 330V050 7000 OVC004 12/12 Q1012 RMK 115 100 8/8=
METAR EPLY 300400Z AUTO 36002KT VV100 12/11 Q1013 RMK 115 096 ///=
METAR EPMB 300400Z 33006KT 9999 SCT100 13/12 Q1015 RMK 133 094 4/4=
METAR EPMI 300400Z 06004KT 9999 NSC 11/10 Q1016 RMK 107 096 4/4=
METAR EPMM 300400Z 01008KT 340V050 9999 FEW060 OVC090 10/09 Q1011 RMK 102 092 8/2=
METAR EPOK 300400Z 32003KT 3600 BR FEW104 BKN173 13/13 Q1016 RMK 134 099 7/2=
METAR EPPR 300400Z 34004KT 9999 BKN113 13/11 Q1016 RMK 132 088 5/5=
METAR EPPW 300400Z 01004KT 9999 BKN070 BKN110 12/12 Q1014 RMK 124 094 7/5=
METAR EPSN 300400Z 00000KT 0500 R29/0800N FG BKN002 08/08 Q1016 RMK 076 100 7/7=
METAR EPTM 300400Z 33008KT 8000 BKN006 BKN100 11/09 Q1012 RMK 107 091 7/5=


 

Prawa autorskie©2007 SSH SZ RP. Wszelkie prawa zastrzeżone.